GLD166 SDOW-SBHT
Flight info
| Callsign | GLD166 |
|---|---|
| Flight time | 1h 32m |
| Altitude | 5500 |
| Route | 0625S05106W 0604S05110W 0545S05114W 0521S05122W 0456S05129W 0435S05135W 0408S05156W 0329S05215W |
| Aircraft | C182/M-SDFGIRY/S |
Departure
| Time | 2026-05-05 17:46 |
|---|---|
| Airport | Ourilândia do Norte Airport (SDOW) |
Arrival
| Time | 2026-05-05 19:18 |
|---|---|
| Airport | Altamira Interstate Airport (SBHT) |
| Time | Latitude | Longitude | Altitude | Speed | Heading |
|---|---|---|---|---|---|
| 2026-05-05 17:42 | -6.76193 | -51.04967 | 756 ft | 0 kts | 205° |
| 2026-05-05 17:43 | -6.76197 | -51.04976 | 756 ft | 5 kts | 256° |
| 2026-05-05 17:43 | -6.76207 | -51.05019 | 756 ft | 7 kts | 216° |
| 2026-05-05 17:43 | -6.76209 | -51.05021 | 756 ft | 0 kts | 212° |
| 2026-05-05 17:43 | -6.76211 | -51.05022 | 756 ft | 2 kts | 212° |
| 2026-05-05 17:44 | -6.76251 | -51.05057 | 756 ft | 12 kts | 256° |
| 2026-05-05 17:44 | -6.76200 | -51.05152 | 758 ft | 20 kts | 305° |
| 2026-05-05 17:44 | -6.76113 | -51.05277 | 768 ft | 21 kts | 303° |
| 2026-05-05 17:44 | -6.76044 | -51.05388 | 775 ft | 17 kts | 305° |
| 2026-05-05 17:45 | -6.76064 | -51.05402 | 775 ft | 9 kts | 105° |
| 2026-05-05 17:45 | -6.76117 | -51.05309 | 769 ft | 34 kts | 119° |
| 2026-05-05 17:45 | -6.76315 | -51.04962 | 762 ft | 75 kts | 118° |
| 2026-05-05 17:45 | -6.76583 | -51.04459 | 885 ft | 88 kts | 116° |
| 2026-05-05 17:46 | -6.76776 | -51.03921 | 1175 ft | 81 kts | 95° |
| 2026-05-05 17:46 | -6.76358 | -51.03453 | 1276 ft | 102 kts | 36° |
| 2026-05-05 17:46 | -6.75663 | -51.03225 | 1394 ft | 114 kts | 359° |
| 2026-05-05 17:46 | -6.74805 | -51.03239 | 1560 ft | 132 kts | 360° |
| 2026-05-05 17:47 | -6.73859 | -51.03457 | 1714 ft | 145 kts | 347° |
| 2026-05-05 17:47 | -6.72938 | -51.03921 | 1855 ft | 155 kts | 336° |
| 2026-05-05 17:47 | -6.71965 | -51.04431 | 2006 ft | 160 kts | 335° |
| 2026-05-05 17:47 | -6.70979 | -51.04951 | 2171 ft | 162 kts | 336° |
| 2026-05-05 17:48 | -6.69961 | -51.05499 | 2302 ft | 168 kts | 337° |
| 2026-05-05 17:48 | -6.68936 | -51.06045 | 2448 ft | 167 kts | 336° |
| 2026-05-05 17:48 | -6.67919 | -51.06588 | 2596 ft | 165 kts | 337° |
| 2026-05-05 17:48 | -6.66896 | -51.07137 | 2738 ft | 166 kts | 337° |
| 2026-05-05 17:49 | -6.65902 | -51.07680 | 2881 ft | 161 kts | 337° |
| 2026-05-05 17:49 | -6.64896 | -51.08100 | 3014 ft | 157 kts | 351° |
| 2026-05-05 17:49 | -6.63816 | -51.08361 | 3157 ft | 162 kts | 352° |
| 2026-05-05 17:49 | -6.62720 | -51.08623 | 3308 ft | 163 kts | 352° |
| 2026-05-05 17:50 | -6.61625 | -51.08867 | 3426 ft | 159 kts | 352° |
| 2026-05-05 17:50 | -6.60535 | -51.09113 | 3574 ft | 162 kts | 352° |
| 2026-05-05 17:50 | -6.59435 | -51.09356 | 3698 ft | 162 kts | 352° |
| 2026-05-05 17:50 | -6.58717 | -51.09516 | 3799 ft | 158 kts | 352° |
| 2026-05-05 17:51 | -6.57664 | -51.09762 | 3958 ft | 156 kts | 351° |
| 2026-05-05 17:51 | -6.56587 | -51.10016 | 4095 ft | 159 kts | 352° |
| 2026-05-05 17:51 | -6.55156 | -51.10340 | 4271 ft | 157 kts | 352° |
| 2026-05-05 17:51 | -6.54085 | -51.10579 | 4436 ft | 161 kts | 351° |
| 2026-05-05 17:52 | -6.53341 | -51.10748 | 4535 ft | 164 kts | 351° |
| 2026-05-05 17:52 | -6.52228 | -51.10982 | 4676 ft | 161 kts | 352° |
| 2026-05-05 17:52 | -6.51158 | -51.11200 | 4823 ft | 159 kts | 352° |
| 2026-05-05 17:52 | -6.50072 | -51.11421 | 4962 ft | 159 kts | 353° |
| 2026-05-05 17:53 | -6.48989 | -51.11655 | 5103 ft | 158 kts | 352° |
| 2026-05-05 17:53 | -6.47924 | -51.11895 | 5235 ft | 156 kts | 352° |
| 2026-05-05 17:53 | -6.46879 | -51.12132 | 5436 ft | 150 kts | 352° |
| 2026-05-05 17:53 | -6.45853 | -51.12364 | 5519 ft | 157 kts | 352° |
| 2026-05-05 17:54 | -6.44752 | -51.12601 | 5522 ft | 166 kts | 352° |
| 2026-05-05 17:54 | -6.43623 | -51.12830 | 5532 ft | 166 kts | 352° |
| 2026-05-05 17:54 | -6.42483 | -51.13064 | 5534 ft | 169 kts | 352° |
| 2026-05-05 17:54 | -6.41333 | -51.13299 | 5543 ft | 169 kts | 352° |
| 2026-05-05 17:55 | -6.40173 | -51.13540 | 5534 ft | 169 kts | 352° |
| 2026-05-05 17:55 | -6.39025 | -51.13777 | 5537 ft | 168 kts | 352° |
| 2026-05-05 17:55 | -6.37885 | -51.14017 | 5545 ft | 171 kts | 351° |
| 2026-05-05 17:55 | -6.36715 | -51.14256 | 5536 ft | 171 kts | 352° |
| 2026-05-05 17:56 | -6.35560 | -51.14496 | 5540 ft | 169 kts | 352° |
| 2026-05-05 17:56 | -6.34401 | -51.14736 | 5547 ft | 171 kts | 352° |
| 2026-05-05 17:56 | -6.33239 | -51.14975 | 5540 ft | 169 kts | 352° |
| 2026-05-05 17:56 | -6.32091 | -51.15201 | 5543 ft | 167 kts | 352° |
| 2026-05-05 17:57 | -6.30952 | -51.15427 | 5539 ft | 167 kts | 352° |
| 2026-05-05 17:57 | -6.29817 | -51.15662 | 5533 ft | 166 kts | 352° |
| 2026-05-05 17:57 | -6.28689 | -51.15906 | 5550 ft | 166 kts | 353° |
| 2026-05-05 17:57 | -6.27548 | -51.16152 | 5542 ft | 169 kts | 352° |
| 2026-05-05 17:58 | -6.26405 | -51.16394 | 5540 ft | 167 kts | 351° |
| 2026-05-05 17:58 | -6.25274 | -51.16617 | 5540 ft | 164 kts | 352° |
| 2026-05-05 17:58 | -6.24161 | -51.16850 | 5539 ft | 163 kts | 352° |
| 2026-05-05 17:58 | -6.23052 | -51.17084 | 5537 ft | 163 kts | 352° |
| 2026-05-05 17:59 | -6.21946 | -51.17315 | 5532 ft | 163 kts | 353° |
| 2026-05-05 17:59 | -6.20846 | -51.17558 | 5546 ft | 166 kts | 352° |
| 2026-05-05 17:59 | -6.19696 | -51.17807 | 5553 ft | 172 kts | 352° |
| 2026-05-05 17:59 | -6.18533 | -51.18055 | 5546 ft | 168 kts | 352° |
| 2026-05-05 18:00 | -6.17403 | -51.18295 | 5546 ft | 164 kts | 352° |
| 2026-05-05 18:00 | -6.16299 | -51.18536 | 5540 ft | 162 kts | 353° |
| 2026-05-05 18:00 | -6.15203 | -51.18780 | 5539 ft | 161 kts | 353° |
| 2026-05-05 18:00 | -6.14110 | -51.19029 | 5535 ft | 161 kts | 353° |
| 2026-05-05 18:01 | -6.12993 | -51.19282 | 5532 ft | 166 kts | 352° |
| 2026-05-05 18:01 | -6.11858 | -51.19539 | 5542 ft | 167 kts | 352° |
| 2026-05-05 18:01 | -6.10735 | -51.19782 | 5543 ft | 164 kts | 353° |
| 2026-05-05 18:01 | -6.09615 | -51.20018 | 5536 ft | 165 kts | 352° |
| 2026-05-05 18:02 | -6.08494 | -51.20248 | 5537 ft | 164 kts | 352° |
| 2026-05-05 18:02 | -6.07364 | -51.20483 | 5536 ft | 167 kts | 352° |
| 2026-05-05 18:02 | -6.06239 | -51.20733 | 5535 ft | 164 kts | 353° |
| 2026-05-05 18:02 | -6.05126 | -51.20981 | 5546 ft | 164 kts | 352° |
| 2026-05-05 18:03 | -6.04021 | -51.21219 | 5538 ft | 164 kts | 352° |
| 2026-05-05 18:03 | -6.02896 | -51.21450 | 5539 ft | 162 kts | 353° |
| 2026-05-05 18:03 | -6.01805 | -51.21681 | 5541 ft | 162 kts | 353° |
| 2026-05-05 18:03 | -6.00695 | -51.21925 | 5542 ft | 164 kts | 352° |
| 2026-05-05 18:04 | -5.99579 | -51.22164 | 5546 ft | 164 kts | 352° |
| 2026-05-05 18:04 | -5.98462 | -51.22391 | 5542 ft | 163 kts | 352° |
| 2026-05-05 18:04 | -5.97355 | -51.22618 | 5542 ft | 162 kts | 352° |
| 2026-05-05 18:04 | -5.96250 | -51.22844 | 5546 ft | 163 kts | 353° |
| 2026-05-05 18:05 | -5.95141 | -51.23081 | 5546 ft | 163 kts | 352° |
| 2026-05-05 18:05 | -5.94020 | -51.23318 | 5553 ft | 166 kts | 352° |
| 2026-05-05 18:05 | -5.92904 | -51.23553 | 5546 ft | 166 kts | 352° |
| 2026-05-05 18:05 | -5.91759 | -51.23790 | 5544 ft | 166 kts | 352° |
| 2026-05-05 18:06 | -5.90628 | -51.24018 | 5543 ft | 166 kts | 352° |
| 2026-05-05 18:06 | -5.89879 | -51.24168 | 5539 ft | 165 kts | 353° |
| 2026-05-05 18:06 | -5.88385 | -51.24469 | 5552 ft | 167 kts | 352° |
| 2026-05-05 18:06 | -5.87245 | -51.24694 | 5552 ft | 167 kts | 352° |
| 2026-05-05 18:07 | -5.86099 | -51.24918 | 5552 ft | 168 kts | 352° |
| 2026-05-05 18:07 | -5.84954 | -51.25141 | 5550 ft | 167 kts | 353° |
| 2026-05-05 18:07 | -5.83810 | -51.25368 | 5553 ft | 168 kts | 352° |
| 2026-05-05 18:07 | -5.82664 | -51.25586 | 5550 ft | 167 kts | 353° |
| 2026-05-05 18:08 | -5.81522 | -51.25802 | 5553 ft | 167 kts | 353° |
| 2026-05-05 18:08 | -5.80376 | -51.26026 | 5552 ft | 169 kts | 352° |
| 2026-05-05 18:08 | -5.79222 | -51.26258 | 5551 ft | 169 kts | 353° |
| 2026-05-05 18:08 | -5.78072 | -51.26488 | 5544 ft | 168 kts | 352° |
| 2026-05-05 18:09 | -5.76929 | -51.26705 | 5546 ft | 167 kts | 353° |
| 2026-05-05 18:09 | -5.75790 | -51.26917 | 5546 ft | 166 kts | 353° |
| 2026-05-05 18:09 | -5.74649 | -51.27132 | 5552 ft | 168 kts | 353° |
| 2026-05-05 18:09 | -5.73499 | -51.27357 | 5550 ft | 168 kts | 353° |
| 2026-05-05 18:10 | -5.72354 | -51.27582 | 5548 ft | 167 kts | 352° |
| 2026-05-05 18:10 | -5.71216 | -51.27805 | 5544 ft | 166 kts | 352° |
| 2026-05-05 18:10 | -5.70094 | -51.28021 | 5546 ft | 167 kts | 353° |
| 2026-05-05 18:10 | -5.68951 | -51.28242 | 5548 ft | 167 kts | 352° |
| 2026-05-05 18:11 | -5.67810 | -51.28459 | 5544 ft | 166 kts | 353° |
| 2026-05-05 18:11 | -5.66681 | -51.28679 | 5551 ft | 165 kts | 353° |
| 2026-05-05 18:11 | -5.65544 | -51.28894 | 5543 ft | 167 kts | 353° |
| 2026-05-05 18:11 | -5.64398 | -51.29112 | 5547 ft | 168 kts | 353° |
| 2026-05-05 18:12 | -5.63251 | -51.29331 | 5547 ft | 167 kts | 353° |
| 2026-05-05 18:12 | -5.62117 | -51.29553 | 5545 ft | 165 kts | 353° |
| 2026-05-05 18:12 | -5.60987 | -51.29775 | 5549 ft | 166 kts | 353° |
| 2026-05-05 18:12 | -5.59854 | -51.29995 | 5546 ft | 165 kts | 353° |
| 2026-05-05 18:13 | -5.58727 | -51.30205 | 5544 ft | 164 kts | 353° |
| 2026-05-05 18:13 | -5.57604 | -51.30413 | 5539 ft | 163 kts | 353° |
| 2026-05-05 18:13 | -5.56489 | -51.30621 | 5539 ft | 163 kts | 353° |
| 2026-05-05 18:13 | -5.55388 | -51.30837 | 5542 ft | 164 kts | 353° |
| 2026-05-05 18:14 | -5.54271 | -51.31055 | 5542 ft | 163 kts | 353° |
| 2026-05-05 18:14 | -5.53149 | -51.31273 | 5541 ft | 165 kts | 353° |
| 2026-05-05 18:14 | -5.52022 | -51.31487 | 5539 ft | 164 kts | 353° |
| 2026-05-05 18:14 | -5.50898 | -51.31707 | 5539 ft | 165 kts | 353° |
| 2026-05-05 18:15 | -5.49773 | -51.31926 | 5544 ft | 166 kts | 353° |
| 2026-05-05 18:15 | -5.48636 | -51.32151 | 5545 ft | 167 kts | 353° |
| 2026-05-05 18:15 | -5.47492 | -51.32381 | 5554 ft | 169 kts | 353° |
| 2026-05-05 18:15 | -5.46347 | -51.32608 | 5547 ft | 166 kts | 353° |
| 2026-05-05 18:16 | -5.45212 | -51.32831 | 5545 ft | 167 kts | 353° |
| 2026-05-05 18:16 | -5.44079 | -51.33051 | 5543 ft | 165 kts | 353° |
| 2026-05-05 18:16 | -5.42954 | -51.33270 | 5540 ft | 164 kts | 353° |
| 2026-05-05 18:16 | -5.41839 | -51.33489 | 5541 ft | 163 kts | 353° |
| 2026-05-05 18:17 | -5.40729 | -51.33707 | 5535 ft | 162 kts | 353° |
| 2026-05-05 18:17 | -5.39630 | -51.33924 | 5535 ft | 161 kts | 353° |
| 2026-05-05 18:17 | -5.38520 | -51.34139 | 5540 ft | 163 kts | 353° |
| 2026-05-05 18:17 | -5.37404 | -51.34355 | 5536 ft | 164 kts | 353° |
| 2026-05-05 18:18 | -5.36287 | -51.34574 | 5540 ft | 163 kts | 353° |
| 2026-05-05 18:18 | -5.35178 | -51.34794 | 5540 ft | 161 kts | 353° |
| 2026-05-05 18:18 | -5.34080 | -51.35008 | 5535 ft | 159 kts | 353° |
| 2026-05-05 18:18 | -5.32985 | -51.35219 | 5536 ft | 161 kts | 353° |
| 2026-05-05 18:19 | -5.31878 | -51.35434 | 5533 ft | 163 kts | 353° |
| 2026-05-05 18:19 | -5.30779 | -51.35650 | 5537 ft | 163 kts | 353° |
| 2026-05-05 18:19 | -5.29670 | -51.35865 | 5538 ft | 162 kts | 353° |
| 2026-05-05 18:19 | -5.28561 | -51.36079 | 5541 ft | 162 kts | 353° |
| 2026-05-05 18:20 | -5.27450 | -51.36296 | 5536 ft | 162 kts | 353° |
| 2026-05-05 18:20 | -5.26338 | -51.36514 | 5545 ft | 163 kts | 353° |
| 2026-05-05 18:20 | -5.25220 | -51.36732 | 5542 ft | 164 kts | 353° |
| 2026-05-05 18:20 | -5.24099 | -51.36949 | 5545 ft | 164 kts | 353° |
| 2026-05-05 18:21 | -5.22977 | -51.37171 | 5543 ft | 164 kts | 353° |
| 2026-05-05 18:21 | -5.21849 | -51.37396 | 5546 ft | 166 kts | 353° |
| 2026-05-05 18:21 | -5.20709 | -51.37622 | 5549 ft | 167 kts | 353° |
| 2026-05-05 18:21 | -5.19568 | -51.37846 | 5550 ft | 167 kts | 353° |
| 2026-05-05 18:22 | -5.18432 | -51.38064 | 5551 ft | 169 kts | 353° |
| 2026-05-05 18:22 | -5.17278 | -51.38283 | 5554 ft | 170 kts | 353° |
| 2026-05-05 18:22 | -5.16110 | -51.38501 | 5554 ft | 170 kts | 353° |
| 2026-05-05 18:22 | -5.14949 | -51.38719 | 5551 ft | 169 kts | 353° |
| 2026-05-05 18:23 | -5.13790 | -51.38941 | 5553 ft | 170 kts | 353° |
| 2026-05-05 18:23 | -5.12632 | -51.39164 | 5554 ft | 170 kts | 353° |
| 2026-05-05 18:23 | -5.11471 | -51.39383 | 5548 ft | 170 kts | 353° |
| 2026-05-05 18:23 | -5.10310 | -51.39594 | 5550 ft | 169 kts | 354° |
| 2026-05-05 18:24 | -5.09152 | -51.39816 | 5552 ft | 170 kts | 353° |
| 2026-05-05 18:24 | -5.07988 | -51.40040 | 5554 ft | 170 kts | 353° |
| 2026-05-05 18:24 | -5.06822 | -51.40266 | 5555 ft | 171 kts | 353° |
| 2026-05-05 18:24 | -5.05648 | -51.40490 | 5554 ft | 172 kts | 353° |
| 2026-05-05 18:25 | -5.04479 | -51.40714 | 5554 ft | 170 kts | 353° |
| 2026-05-05 18:25 | -5.03711 | -51.40865 | 5554 ft | 169 kts | 353° |
| 2026-05-05 18:25 | -5.02164 | -51.41172 | 5553 ft | 169 kts | 353° |
| 2026-05-05 18:25 | -5.01018 | -51.41394 | 5553 ft | 170 kts | 353° |
| 2026-05-05 18:26 | -4.99851 | -51.41612 | 5556 ft | 171 kts | 353° |
| 2026-05-05 18:26 | -4.98677 | -51.41834 | 5555 ft | 171 kts | 354° |
| 2026-05-05 18:26 | -4.97512 | -51.42066 | 5555 ft | 170 kts | 353° |
| 2026-05-05 18:26 | -4.96350 | -51.42299 | 5558 ft | 170 kts | 353° |
| 2026-05-05 18:27 | -4.95188 | -51.42530 | 5557 ft | 171 kts | 353° |
| 2026-05-05 18:27 | -4.94024 | -51.42763 | 5555 ft | 170 kts | 353° |
| 2026-05-05 18:27 | -4.92859 | -51.42984 | 5553 ft | 170 kts | 354° |
| 2026-05-05 18:27 | -4.91698 | -51.43213 | 5555 ft | 170 kts | 353° |
| 2026-05-05 18:28 | -4.89369 | -51.43664 | 5553 ft | 170 kts | 354° |
| 2026-05-05 18:28 | -4.88206 | -51.43893 | 5559 ft | 170 kts | 353° |
| 2026-05-05 18:28 | -4.87040 | -51.44117 | 5558 ft | 171 kts | 353° |
| 2026-05-05 18:29 | -4.85881 | -51.44336 | 5559 ft | 171 kts | 353° |
| 2026-05-05 18:29 | -4.84712 | -51.44559 | 5557 ft | 171 kts | 353° |
| 2026-05-05 18:29 | -4.83543 | -51.44781 | 5556 ft | 171 kts | 354° |
| 2026-05-05 18:29 | -4.82373 | -51.45006 | 5555 ft | 171 kts | 353° |
| 2026-05-05 18:30 | -4.81207 | -51.45233 | 5554 ft | 170 kts | 354° |
| 2026-05-05 18:30 | -4.80054 | -51.45464 | 5552 ft | 168 kts | 353° |
| 2026-05-05 18:30 | -4.78902 | -51.45684 | 5556 ft | 169 kts | 354° |
| 2026-05-05 18:30 | -4.77743 | -51.45902 | 5556 ft | 169 kts | 353° |
| 2026-05-05 18:31 | -4.76583 | -51.46120 | 5557 ft | 170 kts | 354° |
| 2026-05-05 18:31 | -4.75423 | -51.46343 | 5555 ft | 169 kts | 354° |
| 2026-05-05 18:31 | -4.74309 | -51.46733 | 5520 ft | 175 kts | 328° |
| 2026-05-05 18:31 | -4.73408 | -51.47555 | 5516 ft | 175 kts | 319° |
| 2026-05-05 18:32 | -4.72528 | -51.48369 | 5517 ft | 175 kts | 320° |
| 2026-05-05 18:32 | -4.71637 | -51.49196 | 5523 ft | 174 kts | 319° |
| 2026-05-05 18:32 | -4.70748 | -51.50023 | 5518 ft | 174 kts | 320° |
| 2026-05-05 18:32 | -4.69862 | -51.50849 | 5519 ft | 174 kts | 320° |
| 2026-05-05 18:33 | -4.68975 | -51.51673 | 5519 ft | 174 kts | 320° |
| 2026-05-05 18:33 | -4.68086 | -51.52498 | 5516 ft | 174 kts | 320° |
| 2026-05-05 18:33 | -4.67195 | -51.53326 | 5521 ft | 174 kts | 320° |
| 2026-05-05 18:33 | -4.66303 | -51.54152 | 5523 ft | 175 kts | 320° |
| 2026-05-05 18:34 | -4.65421 | -51.54969 | 5521 ft | 175 kts | 320° |
| 2026-05-05 18:34 | -4.64526 | -51.55797 | 5523 ft | 175 kts | 320° |
| 2026-05-05 18:34 | -4.63628 | -51.56624 | 5526 ft | 175 kts | 320° |
| 2026-05-05 18:34 | -4.62732 | -51.57452 | 5524 ft | 175 kts | 320° |
| 2026-05-05 18:35 | -4.61838 | -51.58278 | 5529 ft | 175 kts | 320° |
| 2026-05-05 18:35 | -4.60944 | -51.59103 | 5525 ft | 175 kts | 320° |
| 2026-05-05 18:35 | -4.60047 | -51.59931 | 5526 ft | 175 kts | 320° |
| 2026-05-05 18:35 | -4.59150 | -51.60759 | 5524 ft | 175 kts | 320° |
| 2026-05-05 18:36 | -4.58253 | -51.61587 | 5526 ft | 175 kts | 320° |
| 2026-05-05 18:36 | -4.57358 | -51.62415 | 5531 ft | 175 kts | 320° |
| 2026-05-05 18:36 | -4.56464 | -51.63241 | 5528 ft | 175 kts | 320° |
| 2026-05-05 18:36 | -4.55569 | -51.64066 | 5528 ft | 175 kts | 320° |
| 2026-05-05 18:37 | -4.54685 | -51.64877 | 5530 ft | 174 kts | 320° |
| 2026-05-05 18:37 | -4.53789 | -51.65690 | 5528 ft | 174 kts | 320° |
| 2026-05-05 18:37 | -4.52883 | -51.66512 | 5531 ft | 173 kts | 320° |
| 2026-05-05 18:37 | -4.51988 | -51.67322 | 5532 ft | 174 kts | 320° |
| 2026-05-05 18:38 | -4.51103 | -51.68129 | 5512 ft | 172 kts | 321° |
| 2026-05-05 18:38 | -4.50231 | -51.68937 | 5525 ft | 171 kts | 320° |
| 2026-05-05 18:38 | -4.49354 | -51.69748 | 5529 ft | 172 kts | 320° |
| 2026-05-05 18:38 | -4.48470 | -51.70562 | 5530 ft | 173 kts | 320° |
| 2026-05-05 18:39 | -4.47579 | -51.71381 | 5530 ft | 174 kts | 320° |
| 2026-05-05 18:39 | -4.46986 | -51.71925 | 5533 ft | 174 kts | 320° |
| 2026-05-05 18:39 | -4.46093 | -51.72748 | 5533 ft | 174 kts | 320° |
| 2026-05-05 18:39 | -4.45198 | -51.73570 | 5536 ft | 174 kts | 320° |
| 2026-05-05 18:40 | -4.44303 | -51.74390 | 5536 ft | 174 kts | 320° |
| 2026-05-05 18:40 | -4.43408 | -51.75209 | 5537 ft | 174 kts | 320° |
| 2026-05-05 18:40 | -4.42514 | -51.76028 | 5534 ft | 174 kts | 320° |
| 2026-05-05 18:40 | -4.41623 | -51.76844 | 5535 ft | 174 kts | 320° |
| 2026-05-05 18:41 | -4.40728 | -51.77661 | 5535 ft | 174 kts | 320° |
| 2026-05-05 18:41 | -4.39832 | -51.78473 | 5533 ft | 173 kts | 320° |
| 2026-05-05 18:41 | -4.38947 | -51.79266 | 5538 ft | 172 kts | 320° |
| 2026-05-05 18:41 | -4.38053 | -51.80065 | 5537 ft | 172 kts | 320° |
| 2026-05-05 18:42 | -4.37160 | -51.80861 | 5534 ft | 172 kts | 320° |
| 2026-05-05 18:42 | -4.36266 | -51.81657 | 5536 ft | 172 kts | 320° |
| 2026-05-05 18:42 | -4.35373 | -51.82450 | 5537 ft | 171 kts | 320° |
| 2026-05-05 18:42 | -4.34483 | -51.83242 | 5537 ft | 171 kts | 320° |
| 2026-05-05 18:43 | -4.33592 | -51.84034 | 5537 ft | 170 kts | 320° |
| 2026-05-05 18:43 | -4.32704 | -51.84825 | 5539 ft | 172 kts | 320° |
| 2026-05-05 18:43 | -4.31812 | -51.85621 | 5537 ft | 171 kts | 320° |
| 2026-05-05 18:43 | -4.30923 | -51.86424 | 5534 ft | 172 kts | 320° |
| 2026-05-05 18:44 | -4.30040 | -51.87231 | 5538 ft | 172 kts | 320° |
| 2026-05-05 18:44 | -4.29150 | -51.88038 | 5538 ft | 172 kts | 320° |
| 2026-05-05 18:44 | -4.28260 | -51.88848 | 5541 ft | 174 kts | 320° |
| 2026-05-05 18:44 | -4.27365 | -51.89664 | 5538 ft | 173 kts | 320° |
| 2026-05-05 18:45 | -4.26478 | -51.90477 | 5543 ft | 173 kts | 320° |
| 2026-05-05 18:45 | -4.25589 | -51.91287 | 5541 ft | 173 kts | 320° |
| 2026-05-05 18:45 | -4.24698 | -51.92101 | 5540 ft | 173 kts | 320° |
| 2026-05-05 18:45 | -4.23822 | -51.92901 | 5543 ft | 173 kts | 320° |
| 2026-05-05 18:46 | -4.22929 | -51.93707 | 5540 ft | 173 kts | 320° |
| 2026-05-05 18:46 | -4.22035 | -51.94506 | 5543 ft | 172 kts | 320° |
| 2026-05-05 18:46 | -4.21137 | -51.95307 | 5543 ft | 173 kts | 320° |
| 2026-05-05 18:46 | -4.20239 | -51.96107 | 5542 ft | 173 kts | 320° |
| 2026-05-05 18:47 | -4.19340 | -51.96906 | 5540 ft | 173 kts | 320° |
| 2026-05-05 18:47 | -4.18443 | -51.97703 | 5544 ft | 171 kts | 320° |
| 2026-05-05 18:47 | -4.17547 | -51.98500 | 5548 ft | 173 kts | 320° |
| 2026-05-05 18:47 | -4.16653 | -51.99295 | 5540 ft | 170 kts | 320° |
| 2026-05-05 18:48 | -4.15766 | -52.00083 | 5538 ft | 170 kts | 320° |
| 2026-05-05 18:48 | -4.14889 | -52.00864 | 5544 ft | 172 kts | 320° |
| 2026-05-05 18:48 | -4.13988 | -52.01667 | 5538 ft | 169 kts | 320° |
| 2026-05-05 18:48 | -4.13117 | -52.02450 | 5546 ft | 172 kts | 320° |
| 2026-05-05 18:49 | -4.12227 | -52.03256 | 5544 ft | 173 kts | 320° |
| 2026-05-05 18:49 | -4.11332 | -52.04068 | 5544 ft | 173 kts | 320° |
| 2026-05-05 18:49 | -4.10381 | -52.04805 | 5542 ft | 173 kts | 330° |
| 2026-05-05 18:49 | -4.09323 | -52.05354 | 5542 ft | 171 kts | 340° |
| 2026-05-05 18:50 | -4.08227 | -52.05837 | 5543 ft | 173 kts | 340° |
| 2026-05-05 18:50 | -4.07125 | -52.06320 | 5541 ft | 173 kts | 341° |
| 2026-05-05 18:50 | -4.06024 | -52.06814 | 5543 ft | 173 kts | 340° |
| 2026-05-05 18:50 | -4.04932 | -52.07304 | 5545 ft | 172 kts | 340° |
| 2026-05-05 18:51 | -4.03835 | -52.07793 | 5548 ft | 172 kts | 340° |
| 2026-05-05 18:51 | -4.02737 | -52.08270 | 5547 ft | 172 kts | 340° |
| 2026-05-05 18:51 | -4.01652 | -52.08733 | 5545 ft | 171 kts | 341° |
| 2026-05-05 18:51 | -4.00559 | -52.09202 | 5547 ft | 171 kts | 341° |
| 2026-05-05 18:52 | -3.99474 | -52.09680 | 5546 ft | 171 kts | 340° |
| 2026-05-05 18:52 | -3.98386 | -52.10158 | 5545 ft | 171 kts | 340° |
| 2026-05-05 18:52 | -3.97295 | -52.10636 | 5548 ft | 171 kts | 341° |
| 2026-05-05 18:52 | -3.96206 | -52.11114 | 5550 ft | 172 kts | 341° |
| 2026-05-05 18:53 | -3.95109 | -52.11601 | 5548 ft | 172 kts | 340° |
| 2026-05-05 18:53 | -3.94011 | -52.12077 | 5548 ft | 171 kts | 341° |
| 2026-05-05 18:53 | -3.92916 | -52.12548 | 5551 ft | 172 kts | 341° |
| 2026-05-05 18:53 | -3.91804 | -52.13027 | 5559 ft | 176 kts | 341° |
| 2026-05-05 18:54 | -3.90675 | -52.13513 | 5552 ft | 176 kts | 340° |
| 2026-05-05 18:54 | -3.89552 | -52.13996 | 5551 ft | 174 kts | 341° |
| 2026-05-05 18:54 | -3.88444 | -52.14480 | 5554 ft | 173 kts | 341° |
| 2026-05-05 18:54 | -3.87341 | -52.14965 | 5550 ft | 172 kts | 341° |
| 2026-05-05 18:55 | -3.86253 | -52.15439 | 5552 ft | 172 kts | 341° |
| 2026-05-05 18:55 | -3.85159 | -52.15914 | 5551 ft | 172 kts | 340° |
| 2026-05-05 18:55 | -3.84060 | -52.16386 | 5552 ft | 171 kts | 341° |
| 2026-05-05 18:55 | -3.82968 | -52.16859 | 5551 ft | 171 kts | 341° |
| 2026-05-05 18:56 | -3.81877 | -52.17331 | 5551 ft | 171 kts | 341° |
| 2026-05-05 18:56 | -3.80782 | -52.17805 | 5551 ft | 172 kts | 341° |
| 2026-05-05 18:56 | -3.79678 | -52.18283 | 5555 ft | 173 kts | 341° |
| 2026-05-05 18:56 | -3.78571 | -52.18763 | 5555 ft | 174 kts | 341° |
| 2026-05-05 18:57 | -3.77460 | -52.19245 | 5555 ft | 174 kts | 341° |
| 2026-05-05 18:57 | -3.76350 | -52.19729 | 5556 ft | 174 kts | 341° |
| 2026-05-05 18:57 | -3.75258 | -52.20209 | 5557 ft | 173 kts | 341° |
| 2026-05-05 18:57 | -3.74163 | -52.20690 | 5551 ft | 171 kts | 341° |
| 2026-05-05 18:58 | -3.73074 | -52.21167 | 5553 ft | 171 kts | 341° |
| 2026-05-05 18:58 | -3.71985 | -52.21647 | 5554 ft | 171 kts | 341° |
| 2026-05-05 18:58 | -3.70894 | -52.22127 | 5553 ft | 171 kts | 341° |
| 2026-05-05 18:58 | -3.69804 | -52.22607 | 5550 ft | 171 kts | 341° |
| 2026-05-05 18:59 | -3.68715 | -52.23086 | 5550 ft | 171 kts | 341° |
| 2026-05-05 18:59 | -3.67615 | -52.23566 | 5563 ft | 176 kts | 340° |
| 2026-05-05 18:59 | -3.66447 | -52.24058 | 5585 ft | 188 kts | 340° |
| 2026-05-05 18:59 | -3.65197 | -52.24574 | 5573 ft | 201 kts | 341° |
| 2026-05-05 19:00 | -3.63842 | -52.24916 | 5487 ft | 201 kts | 357° |
| 2026-05-05 19:00 | -3.62457 | -52.25097 | 5321 ft | 200 kts | 358° |
| 2026-05-05 19:00 | -3.61093 | -52.25264 | 5293 ft | 197 kts | 352° |
| 2026-05-05 19:00 | -3.59777 | -52.25354 | 5114 ft | 184 kts | 357° |
| 2026-05-05 19:01 | -3.58500 | -52.25381 | 4930 ft | 179 kts | 358° |
| 2026-05-05 19:01 | -3.57288 | -52.25408 | 4792 ft | 175 kts | 358° |
| 2026-05-05 19:01 | -3.56077 | -52.25436 | 4664 ft | 173 kts | 358° |
| 2026-05-05 19:01 | -3.54876 | -52.25462 | 4537 ft | 172 kts | 358° |
| 2026-05-05 19:02 | -3.53678 | -52.25487 | 4423 ft | 171 kts | 358° |
| 2026-05-05 19:02 | -3.52487 | -52.25513 | 4327 ft | 171 kts | 358° |
| 2026-05-05 19:02 | -3.51293 | -52.25540 | 4223 ft | 172 kts | 358° |
| 2026-05-05 19:02 | -3.50097 | -52.25565 | 4128 ft | 172 kts | 358° |
| 2026-05-05 19:03 | -3.48900 | -52.25590 | 4023 ft | 171 kts | 358° |
| 2026-05-05 19:03 | -3.47713 | -52.25616 | 3924 ft | 170 kts | 358° |
| 2026-05-05 19:03 | -3.46525 | -52.25642 | 3822 ft | 171 kts | 358° |
| 2026-05-05 19:03 | -3.45340 | -52.25665 | 3722 ft | 170 kts | 358° |
| 2026-05-05 19:04 | -3.44156 | -52.25690 | 3625 ft | 170 kts | 358° |
| 2026-05-05 19:04 | -3.42984 | -52.25715 | 3523 ft | 170 kts | 358° |
| 2026-05-05 19:04 | -3.41801 | -52.25736 | 3423 ft | 170 kts | 358° |
| 2026-05-05 19:04 | -3.40628 | -52.25759 | 3392 ft | 166 kts | 358° |
| 2026-05-05 19:05 | -3.39495 | -52.25778 | 3392 ft | 156 kts | 359° |
| 2026-05-05 19:05 | -3.38532 | -52.25372 | 3323 ft | 152 kts | 42° |
| 2026-05-05 19:05 | -3.37820 | -52.24625 | 3316 ft | 147 kts | 45° |
| 2026-05-05 19:05 | -3.37364 | -52.23754 | 3266 ft | 149 kts | 86° |
| 2026-05-05 19:06 | -3.37749 | -52.22814 | 3225 ft | 148 kts | 127° |
| 2026-05-05 19:06 | -3.38357 | -52.21989 | 3228 ft | 146 kts | 126° |
| 2026-05-05 19:06 | -3.38953 | -52.21163 | 3231 ft | 146 kts | 126° |
| 2026-05-05 19:06 | -3.39547 | -52.20340 | 3231 ft | 146 kts | 126° |
| 2026-05-05 19:07 | -3.40142 | -52.19516 | 3239 ft | 147 kts | 126° |
| 2026-05-05 19:07 | -3.40742 | -52.18684 | 3232 ft | 147 kts | 126° |
| 2026-05-05 19:07 | -3.41340 | -52.17858 | 3236 ft | 146 kts | 126° |
| 2026-05-05 19:07 | -3.41942 | -52.17025 | 3235 ft | 148 kts | 126° |
| 2026-05-05 19:08 | -3.42544 | -52.16192 | 3233 ft | 147 kts | 126° |
| 2026-05-05 19:08 | -3.43142 | -52.15364 | 3232 ft | 146 kts | 126° |
| 2026-05-05 19:08 | -3.43738 | -52.14542 | 3238 ft | 146 kts | 126° |
| 2026-05-05 19:08 | -3.44335 | -52.13715 | 3233 ft | 149 kts | 126° |
| 2026-05-05 19:09 | -3.44941 | -52.12882 | 3240 ft | 147 kts | 126° |
| 2026-05-05 19:09 | -3.45530 | -52.12025 | 3231 ft | 152 kts | 117° |
| 2026-05-05 19:09 | -3.45512 | -52.10997 | 3166 ft | 153 kts | 63° |
| 2026-05-05 19:09 | -3.44700 | -52.10328 | 3135 ft | 157 kts | 26° |
| 2026-05-05 19:10 | -3.43637 | -52.10085 | 3112 ft | 161 kts | 356° |
| 2026-05-05 19:10 | -3.42510 | -52.10191 | 3121 ft | 164 kts | 354° |
| 2026-05-05 19:10 | -3.41403 | -52.10443 | 3115 ft | 163 kts | 340° |
| 2026-05-05 19:10 | -3.40383 | -52.10932 | 3110 ft | 162 kts | 330° |
| 2026-05-05 19:11 | -3.39445 | -52.11538 | 3111 ft | 163 kts | 325° |
| 2026-05-05 19:11 | -3.38504 | -52.12176 | 3112 ft | 163 kts | 324° |
| 2026-05-05 19:11 | -3.37614 | -52.12872 | 3111 ft | 161 kts | 320° |
| 2026-05-05 19:11 | -3.36810 | -52.13658 | 3109 ft | 163 kts | 312° |
| 2026-05-05 19:12 | -3.36037 | -52.14491 | 3114 ft | 163 kts | 312° |
| 2026-05-05 19:12 | -3.35253 | -52.15331 | 3032 ft | 168 kts | 313° |
| 2026-05-05 19:12 | -3.34465 | -52.16202 | 2931 ft | 169 kts | 310° |
| 2026-05-05 19:12 | -3.33722 | -52.17121 | 2838 ft | 171 kts | 308° |
| 2026-05-05 19:13 | -3.32977 | -52.18046 | 2733 ft | 169 kts | 309° |
| 2026-05-05 19:13 | -3.32237 | -52.18958 | 2634 ft | 168 kts | 308° |
| 2026-05-05 19:13 | -3.31496 | -52.19864 | 2528 ft | 168 kts | 310° |
| 2026-05-05 19:13 | -3.30627 | -52.20636 | 2422 ft | 168 kts | 324° |
| 2026-05-05 19:14 | -3.29673 | -52.21310 | 2327 ft | 169 kts | 323° |
| 2026-05-05 19:14 | -3.28727 | -52.22009 | 2222 ft | 169 kts | 321° |
| 2026-05-05 19:14 | -3.27846 | -52.22782 | 2128 ft | 169 kts | 317° |
| 2026-05-05 19:14 | -3.27033 | -52.23601 | 2018 ft | 167 kts | 313° |
| 2026-05-05 19:15 | -3.25951 | -52.24032 | 1856 ft | 173 kts | 0° |
| 2026-05-05 19:15 | -3.24901 | -52.23527 | 1708 ft | 175 kts | 46° |
| 2026-05-05 19:15 | -3.24364 | -52.22448 | 1587 ft | 173 kts | 69° |
| 2026-05-05 19:15 | -3.23929 | -52.21361 | 1481 ft | 155 kts | 67° |
| 2026-05-05 19:16 | -3.23444 | -52.20577 | 1301 ft | 118 kts | 34° |
| 2026-05-05 19:16 | -3.22753 | -52.20616 | 1071 ft | 98 kts | 319° |
| 2026-05-05 19:16 | -3.22628 | -52.21222 | 903 ft | 88 kts | 265° |
| 2026-05-05 19:16 | -3.22926 | -52.21736 | 764 ft | 84 kts | 236° |
| 2026-05-05 19:17 | -3.23224 | -52.22234 | 691 ft | 81 kts | 240° |
| 2026-05-05 19:17 | -3.23512 | -52.22698 | 677 ft | 80 kts | 237° |
| 2026-05-05 19:17 | -3.23827 | -52.23163 | 636 ft | 80 kts | 237° |
| 2026-05-05 19:17 | -3.24081 | -52.23632 | 647 ft | 72 kts | 246° |
| 2026-05-05 19:18 | -3.24297 | -52.24091 | 574 ft | 76 kts | 233° |
| 2026-05-05 19:18 | -3.24624 | -52.24515 | 456 ft | 78 kts | 231° |
| 2026-05-05 19:18 | -3.24951 | -52.24928 | 376 ft | 72 kts | 232° |
| 2026-05-05 19:18 | -3.25187 | -52.25236 | 374 ft | 27 kts | 244° |
| 2026-05-05 19:19 | -3.25199 | -52.25261 | 374 ft | 6 kts | 45° |
| 2026-05-05 19:19 | -3.25144 | -52.25172 | 373 ft | 21 kts | 76° |
| 2026-05-05 19:19 | -3.25190 | -52.25109 | 371 ft | 0 kts | 148° |
| 2026-05-05 19:20 | -3.25225 | -52.25086 | 370 ft | 9 kts | 143° |
| 2026-05-05 19:20 | -3.25270 | -52.25047 | 370 ft | 8 kts | 135° |
| 2026-05-05 19:20 | -3.25296 | -52.25010 | 370 ft | 5 kts | 73° |
| 2026-05-05 19:20 | -3.25265 | -52.25002 | 370 ft | 7 kts | 317° |
| 2026-05-05 19:21 | -3.25253 | -52.25012 | 370 ft | 0 kts | 320° |